Time;durP1;ratioP1;P1;durP2;ratioP2;P2;SDS_P1;SDS_P2;PMS_P1;PMS_P2;Temp;Humidity;BMP_temperature;BMP_pressure;BME280_temperature;BME280_humidity;BME280_pressure;Samples;Min_cycle;Max_cycle;Signal;HPM_P1;HPM_P2
2022/08/12 00:44:23;;;;;;;;;;;;;;;26.25;43.56;99509.06;5032157;28;19916;-76
2022/08/12 00:46:53;;;;;;;;;;;;;;;26.24;42.63;99510.16;5032217;28;19909;-76
2022/08/12 00:49:22;;;;;;;;;;;;;;;26.25;43.09;99516.38;5032229;28;19920;-76
2022/08/12 00:54:42;;;;;;;;;;;;;;;26.24;42.23;99509.34;5032592;28;20361;-76
2022/08/12 00:57:13;;;;;;;;;;;;;;;26.22;43.69;99509.63;5032224;28;19909;-76
2022/08/12 00:59:44;;;;;;;;;;;;;;;26.18;42.25;99503.16;5031961;28;19913;-76
2022/08/12 01:02:12;;;;;;;;;;;;;;;26.10;44.21;99508.38;5032002;28;19920;-76
2022/08/12 01:12:52;;;;;;;;;;;;;;;26.11;43.60;99509.97;5032312;28;19916;-76
2022/08/12 01:15:17;;;;;;;;;;;;;;;26.15;42.83;99505.63;5031913;28;19915;-76
2022/08/12 01:17:43;;;;;;;;;;;;;;;26.17;43.85;99506.16;5031771;28;20003;-76
2022/08/12 01:20:12;;;;;;;;;;;;;;;26.15;43.21;99509.13;5031807;28;19928;-76
2022/08/12 01:22:49;;;;;;;;;;;;;;;26.16;43.88;99501.84;5031912;28;19931;-76
2022/08/12 01:25:17;;;;;;;;;;;;;;;26.16;44.40;99501.84;5031785;28;20046;-76
2022/08/12 01:27:43;;;;;;;;;;;;;;;26.13;44.45;99502.41;5031875;28;19909;-76
2022/08/12 01:30:09;;;;;;;;;;;;;;;26.12;43.83;99498.06;5031745;28;19909;-76
2022/08/12 01:32:37;;;;;;;;;;;;;;;26.06;44.39;99496.50;5031696;28;19913;-76
2022/08/12 01:35:04;;;;;;;;;;;;;;;26.03;44.49;99491.63;5031812;28;19915;-76
2022/08/12 01:37:29;;;;;;;;;;;;;;;25.98;44.22;99495.16;5031602;28;19991;-76
2022/08/12 01:39:56;;;;;;;;;;;;;;;25.97;44.25;99494.34;5031667;28;19995;-76
2022/08/12 01:42:22;;;;;;;;;;;;;;;25.93;44.22;99487.88;5031587;28;20394;-76
2022/08/12 01:44:48;;;;;;;;;;;;;;;25.96;44.73;99489.22;5031641;28;19917;-76
2022/08/12 01:47:32;;;;;;;;;;;;;;;25.98;44.63;99484.34;5031653;28;19908;-76
2022/08/12 01:49:59;;;;;;;;;;;;;;;25.97;44.96;99480.81;5031659;28;19916;-76
2022/08/12 01:52:27;;;;;;;;;;;;;;;25.95;44.41;99484.91;5031653;28;19967;-76
2022/08/12 01:54:53;;;;;;;;;;;;;;;25.91;42.76;99481.13;5030242;28;19964;-76
2022/08/12 01:57:23;;;;;;;;;;;;;;;25.83;43.81;99482.53;5031441;28;19913;-76
2022/08/12 02:00:14;;;;;;;;;;;;;;;25.77;45.92;99478.25;5031396;28;19916;-77
2022/08/12 02:02:51;;;;;;;;;;;;;;;25.74;44.69;99489.63;5030206;28;20015;-76
2022/08/12 02:11:17;;;;;;;;;;;;;;;25.60;44.73;99485.88;5035587;28;20449;-76
2022/08/12 02:13:49;;;;;;;;;;;;;;;25.53;45.68;99482.66;5035175;28;19909;-76
2022/08/12 02:16:22;;;;;;;;;;;;;;;25.49;44.39;99478.91;5035018;28;20312;-76
2022/08/12 02:19:06;;;;;;;;;;;;;;;25.44;45.87;99487.84;5035130;28;19920;-76
2022/08/12 02:21:45;;;;;;;;;;;;;;;25.40;45.02;99478.66;5050346;28;19909;-76
2022/08/12 02:24:14;;;;;;;;;;;;;;;25.37;46.14;99491.94;5034953;28;19909;-76
2022/08/12 02:26:42;;;;;;;;;;;;;;;25.36;45.28;99487.59;5034780;28;19913;-76
2022/08/12 02:29:07;;;;;;;;;;;;;;;25.37;45.17;99483.81;5034825;28;19905;-76
2022/08/12 02:31:33;;;;;;;;;;;;;;;25.36;45.20;99483.00;5034823;28;19916;-77
2022/08/12 02:34:00;;;;;;;;;;;;;;;25.36;44.12;99480.31;5034742;28;20365;-77
2022/08/12 02:36:26;;;;;;;;;;;;;;;25.30;45.07;99479.53;5034605;28;19932;-77
2022/08/12 02:38:52;;;;;;;;;;;;;;;25.26;45.24;99480.31;5034483;28;19920;-77
2022/08/12 02:41:20;;;;;;;;;;;;;;;25.18;45.61;99480.88;5034592;28;19999;-76
2022/08/12 02:43:49;;;;;;;;;;;;;;;25.19;45.77;99480.59;5034661;28;20312;-76
2022/08/12 02:46:17;;;;;;;;;;;;;;;25.14;45.73;99475.22;5034578;28;19931;-76
2022/08/12 02:48:49;;;;;;;;;;;;;;;25.11;45.32;99478.47;5034511;28;20386;-76
2022/08/12 02:51:33;;;;;;;;;;;;;;;25.10;46.04;99482.25;5033085;28;19987;-76
2022/08/12 02:53:59;;;;;;;;;;;;;;;25.14;46.28;99482.53;5034330;28;19916;-76
2022/08/12 02:56:27;;;;;;;;;;;;;;;25.17;45.31;99482.78;5034137;28;19909;-76
2022/08/12 02:58:52;;;;;;;;;;;;;;;25.13;46.18;99484.41;5034155;28;19913;-76
2022/08/12 03:01:20;;;;;;;;;;;;;;;25.08;45.25;99486.31;5034426;28;19908;-76
2022/08/12 03:03:49;;;;;;;;;;;;;;;25.10;45.12;99484.97;5034186;28;19909;-76
2022/08/12 03:06:20;;;;;;;;;;;;;;;25.07;46.37;99482.81;5032776;28;20382;-76
2022/08/12 03:08:46;;;;;;;;;;;;;;;25.04;46.67;99488.75;5033919;28;19912;-76
2022/08/12 03:11:18;;;;;;;;;;;;;;;25.03;46.14;99484.44;5034261;28;20317;-76
2022/08/12 03:13:50;;;;;;;;;;;;;;;25.01;47.22;99484.72;5032816;28;19909;-76
2022/08/12 03:16:16;;;;;;;;;;;;;;;24.98;47.57;99490.66;5033124;28;19916;-76
2022/08/12 03:18:42;;;;;;;;;;;;;;;24.90;47.22;99484.97;5032843;28;19913;-76
2022/08/12 03:21:07;;;;;;;;;;;;;;;24.89;47.45;99491.47;5033752;28;20452;-76
2022/08/12 03:23:33;;;;;;;;;;;;;;;24.90;48.03;99493.91;5033703;28;19905;-76
2022/08/12 03:26:00;;;;;;;;;;;;;;;24.91;47.95;99500.09;5033952;28;19915;-76
2022/08/12 03:31:10;;;;;;;;;;;;;;;24.86;45.94;99500.13;5033948;28;19931;-76
2022/08/12 03:33:38;;;;;;;;;;;;;;;24.80;46.73;99498.50;5033695;28;20370;-76
2022/08/12 03:36:05;;;;;;;;;;;;;;;24.76;47.12;99492.03;5033687;28;19905;-76
2022/08/12 03:38:31;;;;;;;;;;;;;;;24.73;46.75;99489.88;5032153;28;20415;-76
2022/08/12 04:00:24;;;;;;;;;;;;;;;24.52;47.64;99497.97;5033170;28;20009;-76
2022/08/12 04:02:57;;;;;;;;;;;;;;;24.51;47.61;99507.13;5033185;28;19949;-76
2022/08/12 04:05:23;;;;;;;;;;;;;;;24.55;47.13;99502.03;5032911;28;20401;-76
2022/08/12 04:07:49;;;;;;;;;;;;;;;24.56;47.04;99512.56;5031498;28;19909;-76
2022/08/12 04:10:14;;;;;;;;;;;;;;;24.59;46.22;99514.72;5032819;28;19916;-76
2022/08/12 04:15:27;;;;;;;;;;;;;;;24.60;45.89;99513.66;5033229;28;19931;-76
2022/08/12 04:17:53;;;;;;;;;;;;;;;24.61;47.14;99520.66;5032697;28;19992;-76
2022/08/12 04:20:19;;;;;;;;;;;;;;;24.56;48.28;99520.66;5032886;28;20366;-76
2022/08/12 04:22:45;;;;;;;;;;;;;;;24.57;47.73;99524.19;5032783;28;19909;-76
2022/08/12 04:25:11;;;;;;;;;;;;;;;24.58;48.15;99520.41;5032842;28;19909;-76
2022/08/12 04:27:37;;;;;;;;;;;;;;;24.59;47.20;99533.63;5031687;28;19916;-76
2022/08/12 04:30:03;;;;;;;;;;;;;;;24.59;49.06;99530.91;5032639;28;19909;-76
2022/08/12 04:32:29;;;;;;;;;;;;;;;24.61;49.16;99533.34;5032766;28;19913;-76
2022/08/12 04:34:55;;;;;;;;;;;;;;;24.63;48.17;99526.59;5032532;28;19909;-76
2022/08/12 04:37:20;;;;;;;;;;;;;;;24.66;47.94;99526.06;5032587;28;19909;-76
2022/08/12 04:39:46;;;;;;;;;;;;;;;24.69;47.67;99524.72;5030979;28;20448;-76
2022/08/12 04:42:12;;;;;;;;;;;;;;;24.69;50.23;99522.81;5032233;28;19920;-76
2022/08/12 04:44:37;;;;;;;;;;;;;;;24.67;49.40;99524.97;5032228;28;19931;-76
2022/08/12 04:47:03;;;;;;;;;;;;;;;24.71;48.86;99523.34;5032369;28;19916;-76
2022/08/12 04:49:30;;;;;;;;;;;;;;;24.72;49.40;99526.88;5032339;28;19976;-76
2022/08/12 04:51:56;;;;;;;;;;;;;;;24.69;49.05;99527.41;5031017;28;19909;-76
2022/08/12 04:54:22;;;;;;;;;;;;;;;24.70;49.28;99523.63;5032051;28;19939;-76
2022/08/12 04:56:51;;;;;;;;;;;;;;;24.74;47.01;99529.28;5030818;28;19955;-76
2022/08/12 04:59:16;;;;;;;;;;;;;;;24.74;49.60;99522.00;5032009;28;19909;-76
2022/08/12 05:01:41;;;;;;;;;;;;;;;24.79;49.14;99523.88;5032001;28;19913;-76
2022/08/12 05:04:07;;;;;;;;;;;;;;;24.79;50.17;99519.31;5032015;28;20393;-76
2022/08/12 05:06:33;;;;;;;;;;;;;;;24.88;48.23;99530.34;5032011;28;19909;-76
2022/08/12 05:08:59;;;;;;;;;;;;;;;24.95;48.07;99525.50;5031705;28;19995;-76
2022/08/12 05:11:25;;;;;;;;;;;;;;;24.98;48.10;99531.19;5031684;28;20007;-76
2022/08/12 05:13:54;;;;;;;;;;;;;;;24.97;48.17;99534.13;5030457;28;20454;-77
2022/08/12 05:16:20;;;;;;;;;;;;;;;25.01;48.23;99543.34;5031396;28;19901;-76
2022/08/12 05:18:45;;;;;;;;;;;;;;;25.07;48.64;99528.75;5031594;28;19936;-76
2022/08/12 05:21:10;;;;;;;;;;;;;;;25.14;46.82;99534.66;5031762;28;19909;-76
2022/08/12 05:23:36;;;;;;;;;;;;;;;25.16;46.78;99543.31;5031862;28;19948;-76
2022/08/12 05:26:04;;;;;;;;;;;;;;;25.22;46.17;99536.00;5031818;28;19909;-77
2022/08/12 05:28:30;;;;;;;;;;;;;;;25.25;46.27;99538.16;5031806;28;19920;-76
2022/08/12 05:30:56;;;;;;;;;;;;;;;25.26;46.83;99545.19;5031657;28;19909;-76
2022/08/12 05:33:25;;;;;;;;;;;;;;;25.23;46.92;99541.13;5031750;28;19913;-76
2022/08/12 05:35:50;;;;;;;;;;;;;;;25.29;46.56;99540.06;5031484;28;19936;-76
2022/08/12 05:41:03;;;;;;;;;;;;;;;25.41;46.02;99534.34;5036053;28;19915;-76
2022/08/12 05:43:28;;;;;;;;;;;;;;;25.48;45.74;99534.06;5034436;28;19908;-76
2022/08/12 05:45:53;;;;;;;;;;;;;;;25.55;45.13;99538.06;5035552;28;19932;-76
2022/08/12 05:48:19;;;;;;;;;;;;;;;25.62;45.00;99548.59;5034388;28;19959;-76
2022/08/12 05:50:45;;;;;;;;;;;;;;;25.67;44.62;99543.19;5035573;28;19920;-76
2022/08/12 05:53:12;;;;;;;;;;;;;;;25.58;44.72;99547.53;5035625;28;19909;-76
2022/08/12 05:55:37;;;;;;;;;;;;;;;25.57;44.84;99544.03;5035684;28;19974;-76
2022/08/12 05:58:04;;;;;;;;;;;;;;;25.63;44.84;99539.41;5035304;28;20369;-77
2022/08/12 06:00:30;;;;;;;;;;;;;;;25.65;44.70;99542.63;5035261;28;20408;-76
2022/08/12 06:02:59;;;;;;;;;;;;;;;25.62;44.40;99538.59;5035264;28;19988;-76
2022/08/12 06:05:25;;;;;;;;;;;;;;;25.60;44.41;99540.75;5035106;28;19928;-76
2022/08/12 06:07:53;;;;;;;;;;;;;;;25.63;44.42;99548.31;5032745;28;20420;-77
2022/08/12 06:10:18;;;;;;;;;;;;;;;25.74;44.24;99542.91;5031748;28;19920;-76
2022/08/12 06:12:48;;;;;;;;;;;;;;;25.84;43.72;99534.72;5032074;28;19901;-76
2022/08/12 06:15:14;;;;;;;;;;;;;;;25.92;44.05;99545.78;5033151;28;19909;-76
2022/08/12 06:17:39;;;;;;;;;;;;;;;25.98;43.99;99543.84;5034728;28;19920;-76
2022/08/12 06:20:04;;;;;;;;;;;;;;;26.00;43.91;99538.97;5033443;28;20400;-76
2022/08/12 06:22:30;;;;;;;;;;;;;;;26.09;43.52;99537.31;5034687;28;19948;-76
2022/08/12 06:24:55;;;;;;;;;;;;;;;26.13;43.56;99537.56;5034750;28;19916;-76
2022/08/12 06:27:20;;;;;;;;;;;;;;;26.16;43.33;99537.81;5033363;28;19924;-76
2022/08/12 06:29:46;;;;;;;;;;;;;;;26.18;42.64;99534.84;5034548;28;20382;-76
2022/08/12 06:32:11;;;;;;;;;;;;;;;26.17;42.85;99534.03;5034646;28;19909;-76
2022/08/12 06:34:37;;;;;;;;;;;;;;;26.17;42.84;99535.91;5033393;28;19913;-76
2022/08/12 06:37:03;;;;;;;;;;;;;;;26.18;43.00;99532.13;5034666;28;19963;-77
2022/08/12 06:39:28;;;;;;;;;;;;;;;26.25;43.29;99536.13;5034463;28;20378;-76
2022/08/12 06:44:39;;;;;;;;;;;;;;;26.35;42.30;99529.88;5023849;28;19913;-76
2022/08/12 06:47:04;;;;;;;;;;;;;;;26.39;41.95;99530.13;5033079;28;19909;-76
2022/08/12 06:49:35;;;;;;;;;;;;;;;26.45;42.00;99531.69;5033825;28;20382;-76
2022/08/12 06:52:00;;;;;;;;;;;;;;;26.52;41.68;99535.69;5033685;28;19908;-76
2022/08/12 06:54:25;;;;;;;;;;;;;;;26.66;41.30;99537.75;5034301;28;19909;-76
2022/08/12 06:56:51;;;;;;;;;;;;;;;26.73;41.14;99524.69;5034040;28;19915;-77
2022/08/12 06:59:19;;;;;;;;;;;;;;;26.82;40.67;99523.00;5034088;28;19938;-76
2022/08/12 07:01:45;;;;;;;;;;;;;;;26.91;40.58;99518.59;5033853;28;19909;-76
2022/08/12 07:04:10;;;;;;;;;;;;;;;26.93;40.37;99516.41;5033827;28;20441;-76
2022/08/12 07:06:35;;;;;;;;;;;;;;;26.94;40.57;99512.59;5032651;28;19909;-76
2022/08/12 07:09:03;;;;;;;;;;;;;;;27.02;39.94;99514.72;5033753;28;20348;-76
2022/08/12 07:11:32;;;;;;;;;;;;;;;27.01;39.79;99507.66;5033830;28;19913;-76
2022/08/12 07:13:59;;;;;;;;;;;;;;;27.05;39.77;99516.84;5033947;28;19952;-77
2022/08/12 07:16:25;;;;;;;;;;;;;;;27.12;39.82;99517.31;5033620;28;19909;-77
2022/08/12 07:18:52;;;;;;;;;;;;;;;27.17;39.65;99516.44;5033861;28;19913;-77
2022/08/12 07:21:18;;;;;;;;;;;;;;;27.25;39.39;99515.00;5033419;28;19916;-77
2022/08/12 07:23:44;;;;;;;;;;;;;;;27.32;39.14;99515.47;5033431;28;20302;-77
2022/08/12 07:26:10;;;;;;;;;;;;;;;27.35;39.10;99502.13;5033566;28;19909;-77
2022/08/12 07:28:38;;;;;;;;;;;;;;;27.49;39.09;99500.34;5033750;28;19995;-77
2022/08/12 07:31:07;;;;;;;;;;;;;;;27.60;38.58;99498.34;5033508;28;19992;-77
2022/08/12 07:33:33;;;;;;;;;;;;;;;27.66;38.60;99501.81;5033809;28;19971;-77
2022/08/12 07:36:01;;;;;;;;;;;;;;;27.69;38.30;99496.63;5031987;28;19956;-77
2022/08/12 07:38:32;;;;;;;;;;;;;;;27.75;38.44;99500.06;5033395;28;19920;-77
2022/08/12 07:40:57;;;;;;;;;;;;;;;27.74;37.97;99501.16;5031822;28;20354;-77
2022/08/12 07:43:22;;;;;;;;;;;;;;;27.79;37.96;99498.38;5031771;28;19970;-77
2022/08/12 07:45:48;;;;;;;;;;;;;;;27.87;38.16;99486.06;5033120;28;19993;-77
2022/08/12 07:48:14;;;;;;;;;;;;;;;27.96;37.98;99487.81;5033145;28;19971;-77
2022/08/12 07:50:40;;;;;;;;;;;;;;;28.02;37.94;99489.38;5033331;28;19919;-77
2022/08/12 07:53:05;;;;;;;;;;;;;;;28.07;37.48;99486.56;5033184;28;19909;-77
2022/08/12 07:55:30;;;;;;;;;;;;;;;28.12;37.34;99485.69;5033018;28;20429;-77
2022/08/12 07:57:58;;;;;;;;;;;;;;;28.20;37.08;99485.00;5032848;28;19909;-77
2022/08/12 08:00:24;;;;;;;;;;;;;;;28.28;36.44;99480.88;5032939;28;20297;-77
2022/08/12 08:02:51;;;;;;;;;;;;;;;28.29;37.00;99477.06;5032560;28;19913;-77
2022/08/12 08:05:18;;;;;;;;;;;;;;;28.28;36.65;99476.25;5032635;28;19995;-77
2022/08/12 08:07:43;;;;;;;;;;;;;;;28.37;36.61;99477.19;5031308;28;19909;-77
2022/08/12 08:10:10;;;;;;;;;;;;;;;28.50;36.65;99472.09;5031484;28;19912;-77
2022/08/12 08:12:55;;;;;;;;;;;;;;;28.59;36.61;99470.31;5031726;28;19909;-77
2022/08/12 08:15:21;;;;;;;;;;;;;;;28.74;36.29;99470.03;5030909;28;20374;-77
2022/08/12 08:18:01;;;;;;;;;;;;;;;28.86;35.97;99475.00;5031932;28;19921;-77
2022/08/12 08:20:28;;;;;;;;;;;;;;;29.02;35.75;99466.28;5032388;28;19913;-77
2022/08/12 08:22:55;;;;;;;;;;;;;;;29.13;35.48;99471.53;5031509;28;19995;-77
2022/08/12 08:25:21;;;;;;;;;;;;;;;29.29;35.89;99457.31;5031360;28;19992;-77
2022/08/12 08:27:46;;;;;;;;;;;;;;;29.41;34.78;99464.97;5031540;28;19908;-77
2022/08/12 08:30:13;;;;;;;;;;;;;;;29.49;34.84;99464.28;5032200;28;19915;-77
2022/08/12 08:32:39;;;;;;;;;;;;;;;29.56;33.31;99461.94;5030626;28;19916;-77
2022/08/12 08:35:06;;;;;;;;;;;;;;;29.49;34.24;99472.44;5030869;28;19916;-77
2022/08/12 08:37:31;;;;;;;;;;;;;;;29.47;33.94;99468.41;5032138;28;19988;-77
2022/08/12 08:42:35;;;;;;;;;;;;;;;29.47;32.97;99462.97;5032136;28;20000;-77
2022/08/12 08:42:42;;;;;;;;;;;;;;;29.63;34.09;99461.53;5031973;28;19916;-77
2022/08/12 08:45:11;;;;;;;;;;;;;;;29.73;33.81;99453.97;5032142;28;19909;-77
2022/08/12 08:47:46;;;;;;;;;;;;;;;29.89;33.92;99450.91;5032022;28;19909;-77
2022/08/12 08:50:15;;;;;;;;;;;;;;;30.05;33.43;99457.63;5030975;28;19909;-77
2022/08/12 08:52:44;;;;;;;;;;;;;;;30.25;33.16;99446.25;5031998;28;19913;-77
2022/08/12 08:55:14;;;;;;;;;;;;;;;30.42;32.92;99451.00;5032130;28;19912;-77
2022/08/12 08:57:40;;;;;;;;;;;;;;;30.53;32.46;99457.00;5031823;28;20357;-77
2022/08/12 09:00:05;;;;;;;;;;;;;;;30.57;31.53;99455.28;5031802;28;19919;-77
2022/08/12 09:02:31;;;;;;;;;;;;;;;30.67;32.63;99449.59;5030366;28;19909;-77
2022/08/12 09:04:56;;;;;;;;;;;;;;;30.82;31.93;99445.66;5031810;28;20015;-77
2022/08/12 09:07:21;;;;;;;;;;;;;;;30.95;31.64;99437.34;5031581;28;19909;-77
2022/08/12 09:09:47;;;;;;;;;;;;;;;31.11;31.45;99442.38;5030172;28;20023;-77
2022/08/12 09:14:57;;;;;;;;;;;;;;;31.27;31.85;99427.25;5031600;28;19932;-77
2022/08/12 09:17:22;;;;;;;;;;;;;;;31.41;30.96;99419.72;5031612;28;19921;-77
2022/08/12 09:19:48;;;;;;;;;;;;;;;31.63;30.09;99426.16;5031582;28;20451;-77
2022/08/12 09:22:13;;;;;;;;;;;;;;;31.85;30.73;99431.50;5030246;28;20400;-77
2022/08/12 09:24:39;;;;;;;;;;;;;;;32.05;30.90;99417.22;5031408;28;19978;-77
2022/08/12 09:27:05;;;;;;;;;;;;;;;32.21;29.74;99418.31;5031574;28;19920;-77
2022/08/12 09:29:32;;;;;;;;;;;;;;;32.34;29.94;99418.47;5030777;28;20023;-76
2022/08/12 09:31:57;;;;;;;;;;;;;;;32.56;29.35;99412.78;5028799;28;19909;-77
2022/08/12 09:34:24;;;;;;;;;;;;;;;32.84;29.00;99421.41;5031241;28;19909;-77
2022/08/12 09:36:49;;;;;;;;;;;;;;;32.97;27.68;99414.13;5030288;28;19916;-77
2022/08/12 09:39:14;;;;;;;;;;;;;;;33.02;28.07;99422.94;5031299;28;20309;-77
2022/08/12 09:41:40;;;;;;;;;;;;;;;33.01;26.97;99409.59;5030691;28;19967;-77
2022/08/12 09:46:50;;;;;;;;;;;;;;;32.98;27.15;99408.31;5029043;28;19920;-77
2022/08/12 09:49:16;;;;;;;;;;;;;;;33.11;28.89;99407.28;5030220;28;19913;-77
2022/08/12 09:51:42;;;;;;;;;;;;;;;33.38;27.68;99402.47;5031364;28;19920;-77
2022/08/12 09:54:10;;;;;;;;;;;;;;;33.71;26.71;99397.09;5031389;28;20442;-77
2022/08/12 09:56:36;;;;;;;;;;;;;;;33.89;26.51;99398.56;5019649;28;20395;-77
2022/08/12 09:59:03;;;;;;;;;;;;;;;34.00;28.06;99386.03;5027569;28;19983;-77
2022/08/12 10:01:28;;;;;;;;;;;;;;;34.10;27.78;99382.88;5031100;28;19925;-77
2022/08/12 10:03:53;;;;;;;;;;;;;;;34.29;26.52;99373.34;5031084;28;19963;-77
2022/08/12 10:06:19;;;;;;;;;;;;;;;34.50;25.89;99373.31;5029703;28;19912;-77
2022/08/12 10:08:44;;;;;;;;;;;;;;;34.58;26.54;99381.44;5030856;28;19913;-77
2022/08/12 10:13:54;;;;;;;;;;;;;;;34.71;26.31;99372.06;5027093;28;19919;-77
2022/08/12 10:16:20;;;;;;;;;;;;;;;34.93;25.93;99370.84;5025566;28;19912;-77
2022/08/12 10:18:45;;;;;;;;;;;;;;;35.12;24.13;99383.97;5022381;28;19983;-77
2022/08/12 10:21:12;;;;;;;;;;;;;;;35.23;23.77;99368.63;5059908;28;19913;-76
2022/08/12 10:23:39;;;;;;;;;;;;;;;35.40;22.79;99369.53;5025820;28;19916;-77
2022/08/12 10:31:32;;;;;;;;;;;;;;;35.25;23.58;99358.09;5028476;28;19975;-77
2022/08/12 10:33:57;;;;;;;;;;;;;;;35.30;24.29;99351.56;5032909;28;20345;-77
2022/08/12 10:36:23;;;;;;;;;;;;;;;35.44;23.22;99356.72;5034380;28;19912;-77
2022/08/12 10:38:49;;;;;;;;;;;;;;;35.60;22.85;99354.81;5063974;28;20000;-77
2022/08/12 10:44:01;;;;;;;;;;;;;;;36.13;24.48;99339.03;5034083;28;19912;-77
2022/08/12 10:46:26;;;;;;;;;;;;;;;36.35;21.48;99343.16;5033913;28;19913;-77
2022/08/12 10:48:52;;;;;;;;;;;;;;;36.23;24.09;99339.31;5034473;28;19966;-77
2022/08/12 10:51:18;;;;;;;;;;;;;;;36.12;23.08;99330.00;5032058;28;20378;-77
2022/08/12 10:53:44;;;;;;;;;;;;;;;36.22;21.14;99337.72;5032093;28;19916;-77
2022/08/12 10:56:12;;;;;;;;;;;;;;;36.33;22.72;99345.47;5031833;28;19952;-77
2022/08/12 10:58:38;;;;;;;;;;;;;;;36.24;21.99;99337.38;5033332;28;19980;-77
2022/08/12 11:01:05;;;;;;;;;;;;;;;36.08;23.43;99333.81;5033581;28;19916;-77
2022/08/12 11:03:36;;;;;;;;;;;;;;;36.25;23.23;99331.53;5033244;28;19909;-77
2022/08/12 11:06:01;;;;;;;;;;;;;;;36.56;21.25;99336.28;5033745;28;20409;-77
2022/08/12 11:08:27;;;;;;;;;;;;;;;36.55;20.88;99328.38;5033587;28;19916;-76
2022/08/12 11:10:52;;;;;;;;;;;;;;;36.82;22.54;99318.41;5032957;28;19908;-77
2022/08/12 11:13:18;;;;;;;;;;;;;;;36.97;20.75;99316.78;5033800;28;19952;-77
2022/08/12 11:15:44;;;;;;;;;;;;;;;37.15;21.93;99315.22;5033694;28;20397;-77
2022/08/12 11:18:10;;;;;;;;;;;;;;;37.21;20.63;99300.03;5031495;28;19921;-77
2022/08/12 11:20:35;;;;;;;;;;;;;;;37.42;21.21;99307.97;5033584;28;19971;-77
2022/08/12 11:23:03;;;;;;;;;;;;;;;37.47;19.92;99302.97;5033391;28;19909;-77
2022/08/12 11:25:28;;;;;;;;;;;;;;;37.33;20.08;99291.66;5033522;28;20298;-77
2022/08/12 11:27:53;;;;;;;;;;;;;;;37.35;20.47;99300.34;5033632;28;19919;-77
2022/08/12 11:30:19;;;;;;;;;;;;;;;37.50;20.27;99304.19;5033715;28;19916;-77
2022/08/12 11:32:44;;;;;;;;;;;;;;;37.76;19.55;99287.00;5033405;28;19913;-77
2022/08/12 11:35:09;;;;;;;;;;;;;;;37.76;21.34;99287.00;5033642;28;19913;-77
2022/08/12 11:37:37;;;;;;;;;;;;;;;37.70;20.39;99286.50;5031676;28;19909;-77
2022/08/12 11:40:02;;;;;;;;;;;;;;;37.67;21.44;99292.72;5031989;28;19909;-77
2022/08/12 11:42:28;;;;;;;;;;;;;;;37.44;20.05;99289.91;5033356;28;19920;-77
2022/08/12 11:44:53;;;;;;;;;;;;;;;37.44;19.69;99286.38;5033310;28;19909;-77
2022/08/12 11:47:18;;;;;;;;;;;;;;;37.50;19.94;99268.38;5031934;28;19967;-77
2022/08/12 11:49:43;;;;;;;;;;;;;;;37.76;20.59;99263.00;5033110;28;20370;-77
2022/08/12 11:52:09;;;;;;;;;;;;;;;37.96;19.61;99271.25;5031856;28;19992;-77
2022/08/12 11:54:34;;;;;;;;;;;;;;;38.01;20.43;99265.41;5033073;28;20008;-77
2022/08/12 11:57:00;;;;;;;;;;;;;;;38.08;19.57;99263.56;5032407;28;20011;-77
2022/08/12 11:59:25;;;;;;;;;;;;;;;38.27;19.37;99261.94;5032238;28;20364;-77
2022/08/12 12:01:51;;;;;;;;;;;;;;;38.41;20.58;99259.41;5032904;28;19967;-77
2022/08/12 12:04:16;;;;;;;;;;;;;;;38.63;20.41;99258.56;5033057;28;19909;-76
2022/08/12 12:06:42;;;;;;;;;;;;;;;38.59;18.45;99256.91;5032907;28;19909;-76
2022/08/12 12:09:07;;;;;;;;;;;;;;;38.35;19.89;99244.31;5031358;28;20378;-77
2022/08/12 12:11:32;;;;;;;;;;;;;;;38.43;19.82;99246.81;5032794;28;19970;-77
2022/08/12 12:13:58;;;;;;;;;;;;;;;38.70;18.64;99244.09;5032811;28;19963;-77
2022/08/12 12:16:23;;;;;;;;;;;;;;;38.95;19.73;99248.00;5032699;28;20007;-77
2022/08/12 12:18:48;;;;;;;;;;;;;;;38.89;18.76;99235.69;5032987;28;19913;-76
2022/08/12 12:21:14;;;;;;;;;;;;;;;38.75;18.63;99232.75;5031430;28;19909;-77
2022/08/12 12:23:39;;;;;;;;;;;;;;;38.78;17.92;99232.00;5031427;28;19939;-77
2022/08/12 12:26:05;;;;;;;;;;;;;;;38.62;18.65;99231.34;5032479;28;19955;-77
2022/08/12 12:28:31;;;;;;;;;;;;;;;38.29;19.59;99232.03;5032522;28;19936;-77
2022/08/12 12:30:56;;;;;;;;;;;;;;;38.25;18.82;99225.66;5032300;28;19909;-77
2022/08/12 12:33:22;;;;;;;;;;;;;;;38.33;20.10;99219.09;5032217;28;20456;-77
2022/08/12 12:35:47;;;;;;;;;;;;;;;38.36;18.58;99216.38;5031803;28;19960;-77
2022/08/12 12:38:14;;;;;;;;;;;;;;;38.12;20.51;99214.00;5030504;28;19905;-77
2022/08/12 12:40:41;;;;;;;;;;;;;;;37.94;20.51;99218.44;5031037;28;19913;-77
2022/08/12 12:43:06;;;;;;;;;;;;;;;37.58;20.59;99222.47;5032307;28;19908;-77
2022/08/12 12:45:33;;;;;;;;;;;;;;;37.27;19.26;99204.19;5031628;28;19915;-77
2022/08/12 12:48:02;;;;;;;;;;;;;;;37.27;20.05;99215.22;5031373;28;19916;-77
2022/08/12 12:50:30;;;;;;;;;;;;;;;37.30;19.80;99206.22;5032171;28;19909;-77
2022/08/12 12:52:55;;;;;;;;;;;;;;;37.32;19.48;99201.16;5031799;28;19909;-77
2022/08/12 12:55:21;;;;;;;;;;;;;;;37.43;20.16;99196.63;5032354;28;20000;-77
2022/08/12 12:57:47;;;;;;;;;;;;;;;37.49;19.56;99195.97;5030462;28;19913;-77
2022/08/12 13:00:17;;;;;;;;;;;;;;;37.58;19.26;99192.97;5029443;28;19974;-76
2022/08/12 13:02:44;;;;;;;;;;;;;;;37.77;17.81;99194.91;5031947;28;20403;-77
2022/08/12 13:05:10;;;;;;;;;;;;;;;37.96;19.14;99192.09;5030540;28;19959;-76
2022/08/12 13:07:41;;;;;;;;;;;;;;;38.19;18.78;99188.53;5031493;28;19944;-77
2022/08/12 13:10:07;;;;;;;;;;;;;;;38.23;18.87;99194.91;5031342;28;20417;-77
2022/08/12 13:12:33;;;;;;;;;;;;;;;38.37;18.42;99187.63;5031555;28;19948;-77
2022/08/12 13:14:58;;;;;;;;;;;;;;;38.51;19.13;99178.75;5031920;28;20353;-76
2022/08/12 13:17:23;;;;;;;;;;;;;;;38.49;18.55;99181.09;5031639;28;19939;-77
2022/08/12 13:19:49;;;;;;;;;;;;;;;37.98;18.67;99164.16;5031656;28;19920;-77
2022/08/12 13:22:17;;;;;;;;;;;;;;;37.37;19.81;99160.34;5031452;28;19913;-77
2022/08/12 13:24:43;;;;;;;;;;;;;;;37.44;19.52;99160.47;5031038;28;19996;-77
2022/08/12 13:27:09;;;;;;;;;;;;;;;37.71;19.30;99166.84;5031455;28;20087;-77
2022/08/12 13:29:37;;;;;;;;;;;;;;;37.90;19.74;99165.97;5031451;28;20333;-77
2022/08/12 13:32:04;;;;;;;;;;;;;;;38.13;19.66;99157.69;5030501;28;20007;-77
2022/08/12 13:34:29;;;;;;;;;;;;;;;38.32;19.19;99165.88;5029391;28;19980;-77
2022/08/12 13:36:55;;;;;;;;;;;;;;;38.36;19.65;99163.19;5031604;28;19948;-77
2022/08/12 13:39:21;;;;;;;;;;;;;;;38.30;18.92;99168.22;5030675;28;19921;-77
2022/08/12 13:41:47;;;;;;;;;;;;;;;38.12;18.02;99167.94;5031264;28;19913;-77
2022/08/12 13:44:12;;;;;;;;;;;;;;;38.24;19.14;99161.44;5031520;28;19958;-77
2022/08/12 13:46:40;;;;;;;;;;;;;;;38.34;18.33;99155.28;5029962;28;19913;-77
2022/08/12 13:49:10;;;;;;;;;;;;;;;38.45;19.33;99153.44;5031295;28;19909;-78
2022/08/12 13:51:36;;;;;;;;;;;;;;;38.45;18.56;99153.44;5029675;28;19983;-78
2022/08/12 13:54:03;;;;;;;;;;;;;;;38.45;19.26;99147.13;5029165;28;20377;-78
2022/08/12 13:56:32;;;;;;;;;;;;;;;38.39;19.32;99148.63;5029888;28;19916;-78
2022/08/12 13:59:02;;;;;;;;;;;;;;;38.24;19.09;99155.13;5031391;28;20401;-78
2022/08/12 14:01:28;;;;;;;;;;;;;;;38.26;18.96;99147.28;5035107;28;19966;-78
2022/08/12 14:03:53;;;;;;;;;;;;;;;38.29;18.17;99149.28;5034300;28;19955;-78
2022/08/12 14:06:20;;;;;;;;;;;;;;;38.25;19.14;99153.97;5033750;28;19960;-78
2022/08/12 14:08:47;;;;;;;;;;;;;;;38.25;19.02;99151.19;5033165;28;19909;-78
2022/08/12 14:11:12;;;;;;;;;;;;;;;38.08;18.54;99150.53;5035206;28;20352;-78
2022/08/12 14:13:38;;;;;;;;;;;;;;;38.00;18.72;99150.81;5034596;28;19959;-78
2022/08/12 14:16:04;;;;;;;;;;;;;;;37.94;18.33;99146.78;5033728;28;19959;-78
2022/08/12 14:18:31;;;;;;;;;;;;;;;37.89;19.28;99145.09;5034807;28;19974;-78
2022/08/12 14:21:03;;;;;;;;;;;;;;;37.83;19.24;99141.06;5035387;28;20274;-78
2022/08/12 14:23:33;;;;;;;;;;;;;;;37.71;18.96;99136.53;5034985;28;19966;-78
2022/08/12 14:25:59;;;;;;;;;;;;;;;37.74;18.85;99130.28;5034763;28;19940;-78
2022/08/12 14:28:25;;;;;;;;;;;;;;;37.74;19.38;99133.06;5034559;28;19953;-78
2022/08/12 14:30:59;;;;;;;;;;;;;;;37.69;19.37;99130.63;5034495;28;19909;-78
2022/08/12 14:33:32;;;;;;;;;;;;;;;37.64;19.63;99130.88;5034670;28;20360;-78